Washington, District of Columbia
Traffic Map
Current Weather Conditions
Washington, District of Columbia
Few Clouds
Few Clouds
-8°
Feels Like: -16°
Wind Chill: -16° Ceiling: Unl
Heat Index: -8° Visibility: 10mi
Dew Point: -20° Wind: 15mph
Humidity: 39% Direction: 310° (NW)
Pressure: 30.44in Gusts: 21mph
Raw Report DataKDCA 140152Z 31013G18KT 10SM FEW060 M08/M20 A3044 RMK AO2 SLP307 T10831200
Traffic Incident Summary
Active as of:
Severity:
Category:
InformationThere was an issue retrieving the traffic information for this location. Please try a different location or try again shortly.
Advertisements
Track Severe Weather on mobile